Aeroporto :
LOGIN :

Iscrizione | Disclaimer

   EN    FR    IT 

 










Sommario :    VFR   VFR Marginale   IFR   IFR Intensivo   IFR Molto Intensivo
Visibilità : 
Base nubi : 
>= 8 km
>= 3000ft
5 / 8 km
1000 / 3000 ft
1500m / 5 km
500 / 1000 ft
800 / 1500m
200 / 500 ft
< 800m
< 200 ft
Simboli :   Temporali  Nebbia  Neve Forte  Precipitazioni Forti  Vento > 20 kt
SIGMETs :   Varie  Temporali  Ghiacco  Turbolenza  Onda orograficha  Ceneri Vulcaniche







- Altitudine del aeroporto : 614 ft
- Codice IATA : CRL


EBCI - Charleroi

ULTIMO METAR :
  • 231020Z 05009KT CAVOK 17/06 Q0997 NOSIG

METARs OBSOLETI :
  • 230950Z 05009KT 020V080 CAVOK 16/06 Q0997 NOSIG
  • 230920Z 07007KT 030V090 CAVOK 16/06 Q0997 NOSIG
  • 230850Z 07009KT CAVOK 16/04 Q0998 NOSIG
  • 230820Z 07008KT CAVOK 15/05 Q0998 NOSIG
  • 230750Z 06008KT CAVOK 14/04 Q0998 NOSIG

TAF TAF EBCI
Valido dal 23 a 06 ore il 24 a 12 ore UTC


230510Z 2306/2412 08007KT CAVOK
BECMG 2406/2408 18012KT
PROB30
TEMPO 2409/2412 19017G27KT
Nessun NOTAM noto per questo aeroporto.



MetMap, La meteo Aeronautica in un colpo d'occhio ! - Copyright ORBIFLY Dicembre 2007 - Disclaimer

ORBIFLY MET'MAP TEAM :

Programmazione e sviluppo : Alexandra Zaïnal
Concezione e sviluppo : Baudouin d'Aumeries
Co-Programmazione e sviluppo : Marc-Olivier Méhu
Supporto tecnico e logistico : Manuel Goepfert
Aiuto per la traduzione : Arnaldo La Scala

Contatto : metmap@orbifly.com




FONTI E CREDITI :

   NOAA